Time;durP1;ratioP1;P1;durP2;ratioP2;P2;SDS_P1;SDS_P2;PMS_P1;PMS_P2;Temp;Humidity;BMP_temperature;BMP_pressure;BME280_temperature;BME280_humidity;BME280_pressure;Samples;Min_cycle;Max_cycle;Signal;HPM_P1;HPM_P2
2022/08/06 00:02:23;;;;;;;16.17;7.78;;;;;;;13.31;70.32;102454.19;5011865;28;20423;-59
2022/08/06 00:04:48;;;;;;;17.20;7.97;;;;;;;13.32;70.49;102455.03;5012592;28;20095;-60
2022/08/06 00:07:14;;;;;;;20.15;8.77;;;;;;;13.27;70.78;102461.44;5012711;28;20424;-60
2022/08/06 00:09:39;;;;;;;20.60;8.60;;;;;;;13.18;71.03;102455.63;5012825;28;20030;-59
2022/08/06 00:12:05;;;;;;;17.27;9.00;;;;;;;13.11;71.10;102460.66;5012955;28;20029;-60
2022/08/06 00:14:32;;;;;;;17.48;8.90;;;;;;;13.02;71.86;102465.97;4994514;28;20439;-59
2022/08/06 00:16:58;;;;;;;20.75;9.50;;;;;;;12.93;72.05;102474.06;5012425;28;20444;-59
2022/08/06 00:19:24;;;;;;;20.08;8.93;;;;;;;12.82;72.92;102471.56;5012183;28;20022;-59
2022/08/06 00:21:51;;;;;;;19.35;8.55;;;;;;;12.72;73.43;102472.44;5012435;28;20018;-59
2022/08/06 00:24:16;;;;;;;18.15;8.70;;;;;;;12.70;73.59;102481.06;5012451;28;20033;-59
2022/08/06 00:26:42;;;;;;;18.42;9.02;;;;;;;12.65;74.48;102478.28;5012291;28;20071;-59
2022/08/06 00:29:07;;;;;;;18.67;9.60;;;;;;;12.60;73.39;102475.53;5012196;28;20053;-59
2022/08/06 00:31:33;;;;;;;18.48;9.05;;;;;;;12.57;74.64;102476.09;5012272;28;20358;-60
2022/08/06 00:34:01;;;;;;;18.48;9.45;;;;;;;12.59;74.32;102480.25;5011923;28;20029;-59
2022/08/06 00:36:28;;;;;;;19.60;9.88;;;;;;;12.56;73.84;102488.28;5012425;28;20033;-60
2022/08/06 00:38:53;;;;;;;17.33;9.57;;;;;;;12.62;74.66;102489.94;5011951;28;20111;-59
2022/08/06 00:41:20;;;;;;;17.98;9.75;;;;;;;12.63;74.16;102489.69;5012662;28;20159;-58
2022/08/06 00:43:45;;;;;;;18.83;8.93;;;;;;;12.70;74.15;102489.41;5012470;28;20033;-60
2022/08/06 00:46:11;;;;;;;18.20;9.50;;;;;;;12.72;74.02;102486.34;5012203;28;20034;-60
2022/08/06 00:48:37;;;;;;;17.65;9.10;;;;;;;12.74;74.09;102492.44;5011831;28;20140;-59
2022/08/06 00:51:03;;;;;;;18.48;9.80;;;;;;;12.69;74.34;102487.72;5011988;28;20152;-60
2022/08/06 00:53:29;;;;;;;18.17;9.00;;;;;;;12.72;74.16;102498.25;5012285;28;20434;-60
2022/08/06 00:55:54;;;;;;;18.60;9.13;;;;;;;12.68;74.10;102488.00;5012319;28;20450;-60
2022/08/06 00:58:19;;;;;;;19.88;9.70;;;;;;;12.67;74.28;102492.72;5011837;28;20033;-59
2022/08/06 01:00:44;;;;;;;17.60;9.32;;;;;;;12.60;74.21;102497.75;5012312;28;20088;-59
2022/08/06 01:03:10;;;;;;;21.52;9.88;;;;;;;12.57;74.01;102501.88;5011630;28;20037;-60
2022/08/06 01:05:36;;;;;;;19.13;9.32;;;;;;;12.50;74.76;102497.75;5012006;28;20148;-60
2022/08/06 01:08:03;;;;;;;20.45;9.05;;;;;;;12.51;75.04;102502.19;4994278;28;20101;-60
2022/08/06 01:10:28;;;;;;;17.52;9.20;;;;;;;12.47;74.48;102505.53;5011938;28;20033;-59
2022/08/06 01:12:54;;;;;;;18.00;9.55;;;;;;;12.51;75.34;102511.34;5012528;28;20018;-59
2022/08/06 01:15:19;;;;;;;19.17;8.63;;;;;;;12.51;75.13;102503.00;5015788;28;20060;-59
2022/08/06 01:18:00;;;;;;;21.48;9.35;;;;;;;12.51;74.91;102516.91;5016354;28;20076;-59
2022/08/06 01:20:47;;;;;;;17.48;8.75;;;;;;;12.50;74.79;102517.19;5016043;28;20034;-59
2022/08/06 01:23:42;;;;;;;18.52;8.65;;;;;;;12.45;75.20;102524.38;4998419;28;20069;-59
2022/08/06 01:26:13;;;;;;;16.73;8.88;;;;;;;12.44;75.52;102522.72;4994573;28;20045;-59
2022/08/06 01:28:45;;;;;;;18.42;9.18;;;;;;;12.38;75.78;102531.31;5016000;28;20029;-59
2022/08/06 01:31:16;;;;;;;18.13;8.95;;;;;;;12.34;76.09;102531.03;5014174;28;20040;-58
2022/08/06 01:33:46;;;;;;;19.20;9.60;;;;;;;12.21;75.75;102518.56;5015798;28;20106;-59
2022/08/06 01:36:20;;;;;;;18.80;9.55;;;;;;;12.27;76.84;102530.50;5015371;28;20034;-59
2022/08/06 01:38:47;;;;;;;;;;;;;;;12.30;74.09;102533.53;5015955;28;20034;-59
2022/08/06 01:41:38;;;;;;;19.40;9.52;;;;;;;12.16;76.34;102529.66;5015853;28;19955;-59
2022/08/06 01:44:05;;;;;;;20.63;10.40;;;;;;;12.17;77.20;102529.38;5015282;28;20030;-60
2022/08/06 01:46:31;;;;;;;17.95;9.15;;;;;;;12.26;77.31;102537.16;5015434;28;20079;-60
2022/08/06 01:48:59;;;;;;;19.55;9.63;;;;;;;12.22;77.27;102534.09;5015669;28;20053;-59
2022/08/06 01:51:26;;;;;;;19.85;10.00;;;;;;;12.18;77.55;102538.53;5015270;28;20030;-60
2022/08/06 01:53:53;;;;;;;21.20;9.65;;;;;;;12.15;76.79;102539.09;5015515;28;20030;-60
2022/08/06 01:56:22;;;;;;;18.70;9.80;;;;;;;12.13;77.60;102533.81;5015554;28;20101;-60
2022/08/06 01:58:50;;;;;;;18.55;9.48;;;;;;;12.07;77.52;102528.53;5015348;28;20033;-60
2022/08/06 02:01:18;;;;;;;19.67;10.43;;;;;;;12.05;77.28;102530.75;5014846;28;20256;-58
2022/08/06 02:03:47;;;;;;;18.15;9.25;;;;;;;12.01;78.28;102530.47;5015167;28;20037;-59
2022/08/06 02:06:16;;;;;;;17.73;9.43;;;;;;;12.04;78.18;102532.69;5015340;28;20423;-59
2022/08/06 02:08:44;;;;;;;19.45;9.68;;;;;;;12.00;78.33;102526.03;5015282;28;20030;-60
2022/08/06 02:11:10;;;;;;;17.15;8.43;;;;;;;11.99;78.66;102527.13;5014868;28;20022;-59
2022/08/06 02:13:38;;;;;;;19.17;9.38;;;;;;;12.00;78.59;102529.63;5015617;28;20049;-59
2022/08/06 02:16:07;;;;;;;20.20;9.57;;;;;;;11.97;78.25;102532.06;5015515;28;20132;-59
2022/08/06 02:18:37;;;;;;;19.83;8.68;;;;;;;12.01;79.23;102528.50;5014978;28;20296;-59
2022/08/06 02:21:06;;;;;;;18.83;8.90;;;;;;;11.89;78.63;102529.84;5015222;28;20033;-59
2022/08/06 02:23:32;;;;;;;16.38;8.88;;;;;;;11.87;78.62;102535.69;5015255;28;20029;-60
2022/08/06 02:26:00;;;;;;;19.20;9.25;;;;;;;11.77;79.69;102530.91;5013613;28;20037;-59
2022/08/06 02:28:27;;;;;;;18.77;9.20;;;;;;;11.82;80.04;102541.19;5014791;28;20500;-60
2022/08/06 02:30:55;;;;;;;16.02;9.38;;;;;;;11.76;80.11;102534.78;5014959;28;20099;-59
2022/08/06 02:33:21;;;;;;;18.92;9.30;;;;;;;11.76;78.94;102545.06;5014764;28;20030;-59
2022/08/06 02:36:05;;;;;;;18.60;9.38;;;;;;;11.67;79.76;102545.59;5014775;28;20094;-60
2022/08/06 02:38:38;;;;;;;16.95;9.10;;;;;;;11.63;80.22;102540.88;5014352;28;20033;-59
2022/08/06 02:41:30;;;;;;;20.77;8.88;;;;;;;11.59;80.21;102540.59;5015123;28;20046;-59
2022/08/06 02:44:06;;;;;;;17.88;8.80;;;;;;;11.50;80.13;102531.94;5014571;28;20143;-60
2022/08/06 02:46:39;;;;;;;17.02;9.10;;;;;;;11.46;80.39;102538.31;5014894;28;20025;-60
2022/08/06 02:49:25;;;;;;;17.60;8.75;;;;;;;11.41;79.94;102541.88;5014487;28;20129;-59
2022/08/06 02:51:55;;;;;;;18.52;8.85;;;;;;;11.37;81.59;102547.13;5013857;28;20035;-60
2022/08/06 02:54:33;;;;;;;19.13;9.43;;;;;;;11.33;81.21;102542.41;5014611;28;20057;-58
2022/08/06 02:57:05;;;;;;;18.40;9.55;;;;;;;11.27;81.35;102538.78;5014618;28;20128;-59
2022/08/06 02:59:43;;;;;;;21.15;9.35;;;;;;;11.27;81.33;102544.31;5013963;28;20050;-59
2022/08/06 03:02:11;;;;;;;19.00;9.50;;;;;;;11.23;81.60;102544.03;5014407;28;20030;-59
2022/08/06 03:04:42;;;;;;;19.10;9.38;;;;;;;11.20;82.28;102538.19;5014215;28;20030;-59
2022/08/06 03:07:11;;;;;;;18.80;9.18;;;;;;;11.17;82.09;102550.66;5014401;28;20088;-59
2022/08/06 03:09:37;;;;;;;17.25;9.20;;;;;;;11.04;82.37;102534.50;5014195;28;20030;-59
2022/08/06 03:12:04;;;;;;;17.85;9.82;;;;;;;11.11;82.55;102553.66;5013852;28;20034;-59
2022/08/06 03:14:32;;;;;;;18.27;9.40;;;;;;;11.12;83.25;102558.09;5014057;28;20038;-59
2022/08/06 03:16:58;;;;;;;17.25;10.15;;;;;;;11.04;82.67;102551.97;5013936;28;20030;-59
2022/08/06 03:19:26;;;;;;;18.25;9.95;;;;;;;10.97;83.16;102547.75;5013926;28;20032;-59
2022/08/06 03:21:53;;;;;;;19.88;10.20;;;;;;;11.00;83.46;102552.75;5013699;28;20034;-59
2022/08/06 03:24:19;;;;;;;16.30;9.27;;;;;;;11.02;83.86;102551.38;5013493;28;20033;-60
2022/08/06 03:26:46;;;;;;;17.38;9.77;;;;;;;11.06;83.91;102555.28;5013770;28;20472;-60
2022/08/06 03:29:12;;;;;;;18.50;9.55;;;;;;;11.12;83.67;102558.91;5013844;28;20038;-60
2022/08/06 03:31:38;;;;;;;19.77;10.10;;;;;;;11.13;83.68;102557.81;5013801;28;20104;-59
2022/08/06 03:34:05;;;;;;;19.08;9.98;;;;;;;11.10;83.74;102560.28;5013289;28;20543;-59
2022/08/06 03:36:31;;;;;;;18.60;9.70;;;;;;;11.10;83.88;102563.06;5013643;28;20030;-58
2022/08/06 03:39:03;;;;;;;17.70;9.90;;;;;;;11.10;83.81;102563.06;5013461;28;20065;-60
2022/08/06 03:41:32;;;;;;;17.42;9.63;;;;;;;11.08;83.60;102564.16;5013300;28;20515;-59
2022/08/06 03:43:57;;;;;;;19.80;9.80;;;;;;;11.08;83.72;102563.34;5013289;28;20038;-59
2022/08/06 03:46:27;;;;;;;18.30;9.85;;;;;;;11.00;84.04;102550.81;5013136;28;20055;-59
2022/08/06 03:48:53;;;;;;;16.98;9.07;;;;;;;11.01;83.71;102562.72;5013506;28;20470;-60
2022/08/06 03:51:21;;;;;;;20.17;9.65;;;;;;;10.90;83.71;102550.75;5012862;28;20033;-60
2022/08/06 03:53:48;;;;;;;18.98;9.88;;;;;;;10.93;84.25;102564.88;5013182;28;20055;-58
2022/08/06 03:56:18;;;;;;;16.50;9.40;;;;;;;10.83;84.34;102544.59;5013186;28;20038;-59
2022/08/06 03:58:46;;;;;;;17.70;9.75;;;;;;;10.84;84.07;102557.34;5013342;28;20117;-59
2022/08/06 04:01:15;;;;;;;19.42;10.23;;;;;;;10.91;84.91;102567.06;5013319;28;20037;-59
2022/08/06 04:03:42;;;;;;;18.13;10.10;;;;;;;10.92;84.24;102579.00;4995313;28;20026;-59
2022/08/06 04:06:10;;;;;;;20.45;10.27;;;;;;;10.92;84.27;102587.31;5012849;28;20045;-60
2022/08/06 04:08:37;;;;;;;20.02;10.40;;;;;;;10.98;85.31;102585.41;5012949;28;20077;-59
2022/08/06 04:11:04;;;;;;;20.08;10.23;;;;;;;10.94;85.08;102587.88;5013128;28;20026;-60
2022/08/06 04:13:30;;;;;;;19.58;10.07;;;;;;;10.93;84.24;102589.81;5012448;28;20030;-60
2022/08/06 04:15:56;;;;;;;21.08;10.38;;;;;;;10.98;85.23;102586.25;5012755;28;20048;-61
2022/08/06 04:18:25;;;;;;;18.40;9.57;;;;;;;10.98;85.11;102593.72;5012734;28;20056;-59
2022/08/06 04:20:54;;;;;;;20.60;10.40;;;;;;;10.91;84.85;102580.09;5012401;28;20022;-60
2022/08/06 04:23:20;;;;;;;19.05;10.25;;;;;;;11.01;85.42;102590.41;5012504;28;20095;-59
2022/08/06 04:25:51;;;;;;;18.30;9.77;;;;;;;10.93;84.98;102578.72;5012577;28;20026;-59
2022/08/06 04:28:19;;;;;;;20.05;10.50;;;;;;;11.03;85.24;102590.97;5012197;28;20094;-59
2022/08/06 04:30:45;;;;;;;20.67;10.10;;;;;;;11.07;85.16;102603.22;5012460;28;20030;-60
2022/08/06 04:33:13;;;;;;;19.98;10.55;;;;;;;11.08;84.91;102611.25;4994375;28;20029;-58
2022/08/06 04:35:41;;;;;;;19.35;10.65;;;;;;;11.12;85.12;102605.19;5012171;28;20056;-59
2022/08/06 04:38:08;;;;;;;18.80;10.27;;;;;;;11.13;85.43;102615.16;5012048;28;20033;-59
2022/08/06 04:40:36;;;;;;;21.23;10.98;;;;;;;11.09;84.79;102595.47;5012273;28;20057;-59
2022/08/06 04:43:04;;;;;;;21.85;11.57;;;;;;;11.21;85.32;102611.88;5011836;28;20038;-59
2022/08/06 04:45:30;;;;;;;22.70;11.50;;;;;;;11.24;84.72;102606.63;5012774;28;20415;-61
2022/08/06 04:47:56;;;;;;;22.67;11.43;;;;;;;11.27;85.22;102608.03;5011103;28;20057;-59
2022/08/06 04:50:22;;;;;;;21.63;11.60;;;;;;;11.33;85.21;102612.53;5011946;28;20030;-59
2022/08/06 04:52:47;;;;;;;25.02;12.52;;;;;;;11.35;84.96;102615.84;5011914;28;20026;-59
2022/08/06 04:55:12;;;;;;;21.13;11.50;;;;;;;11.38;84.48;102623.63;5011897;28;20030;-59
2022/08/06 04:57:37;;;;;;;22.08;12.07;;;;;;;11.44;84.75;102623.63;5012195;28;20049;-60
2022/08/06 05:00:04;;;;;;;23.58;11.57;;;;;;;11.46;84.86;102625.06;5011909;28;20331;-60
2022/08/06 05:02:29;;;;;;;22.83;12.23;;;;;;;11.54;84.58;102623.69;5012305;28;20054;-60
2022/08/06 05:04:57;;;;;;;22.25;12.13;;;;;;;11.57;84.37;102628.72;5012023;28;20504;-60
2022/08/06 05:07:25;;;;;;;21.67;11.65;;;;;;;11.59;84.21;102623.75;5011978;28;20492;-59
2022/08/06 05:09:51;;;;;;;21.58;11.82;;;;;;;11.67;84.58;102630.69;5011936;28;20108;-59
2022/08/06 05:12:40;;;;;;;21.17;11.15;;;;;;;11.69;83.83;102632.09;5012106;28;20052;-59
2022/08/06 05:15:11;;;;;;;22.88;11.23;;;;;;;11.73;84.10;102634.31;5011937;28;20034;-60
2022/08/06 05:17:44;;;;;;;19.40;10.70;;;;;;;11.78;84.08;102631.59;5012205;28;20112;-60
2022/08/06 05:20:17;;;;;;;22.05;11.00;;;;;;;11.75;84.01;102626.56;5012036;28;20034;-60
2022/08/06 05:22:46;;;;;;;19.27;10.30;;;;;;;11.77;83.62;102627.16;5011785;28;20524;-60
2022/08/06 05:25:12;;;;;;;19.35;10.65;;;;;;;11.87;84.06;102652.16;5011956;28;20041;-59
2022/08/06 05:27:40;;;;;;;19.42;10.63;;;;;;;11.95;83.80;102648.03;5011596;28;20030;-59
2022/08/06 05:30:06;;;;;;;18.83;9.73;;;;;;;11.98;83.18;102644.72;5011957;28;20030;-60
2022/08/06 05:32:40;;;;;;;19.30;10.40;;;;;;;12.02;83.55;102638.38;5011795;28;20068;-59
2022/08/06 05:35:06;;;;;;;20.10;10.27;;;;;;;12.21;83.25;102651.72;5012092;28;20152;-59
2022/08/06 05:37:31;;;;;;;21.35;10.52;;;;;;;12.29;83.50;102647.59;5011722;28;20466;-58
2022/08/06 05:39:56;;;;;;;19.45;10.50;;;;;;;12.37;83.42;102654.56;5011883;28;20117;-59
2022/08/06 05:42:22;;;;;;;21.83;10.75;;;;;;;12.42;82.91;102663.72;5011862;28;20042;-63
2022/08/06 05:44:47;;;;;;;20.83;9.90;;;;;;;12.53;82.92;102667.38;5011873;28;20026;-58
2022/08/06 05:47:16;;;;;;;18.70;10.10;;;;;;;12.59;82.41;102649.59;5012092;28;20493;-60
2022/08/06 05:49:48;;;;;;;19.00;10.38;;;;;;;12.65;82.23;102661.53;5010632;28;20026;-59
2022/08/06 05:52:22;;;;;;;18.80;9.20;;;;;;;12.79;81.05;102659.06;5011606;28;20187;-59
2022/08/06 05:54:52;;;;;;;18.90;10.32;;;;;;;12.92;80.94;102655.75;5011582;28;20034;-58
2022/08/06 05:57:37;;;;;;;18.75;9.25;;;;;;;13.02;80.67;102656.84;5011741;28;20018;-60
2022/08/06 06:00:09;;;;;;;19.92;8.80;;;;;;;13.11;79.79;102657.94;5013809;28;20030;-60
2022/08/06 06:02:40;;;;;;;15.02;8.93;;;;;;;13.14;79.86;102665.72;5015732;28;20105;-60
2022/08/06 06:05:07;;;;;;;18.30;9.02;;;;;;;13.18;79.45;102661.28;5015200;28;20056;-60
2022/08/06 06:07:33;;;;;;;19.58;8.63;;;;;;;13.23;79.31;102666.00;5015083;28;20026;-59
2022/08/06 06:10:02;;;;;;;18.50;8.80;;;;;;;13.30;78.95;102660.97;5015405;28;20034;-60
2022/08/06 06:12:29;;;;;;;16.90;9.10;;;;;;;13.35;79.09;102666.53;5015073;28;20034;-59
2022/08/06 06:14:55;;;;;;;17.80;8.85;;;;;;;13.43;78.70;102662.38;5015050;28;20458;-60
2022/08/06 06:17:41;;;;;;;16.35;9.10;;;;;;;13.53;78.81;102667.09;5014839;28;20030;-60
2022/08/06 06:20:24;;;;;;;15.88;8.80;;;;;;;13.61;78.11;102672.06;5014703;28;20432;-60
2022/08/06 06:22:58;;;;;;;17.20;8.35;;;;;;;13.67;77.85;102670.94;5015012;28;20382;-59
2022/08/06 06:25:29;;;;;;;15.68;8.70;;;;;;;13.76;77.70;102673.97;5014426;28;20033;-60
2022/08/06 06:28:13;;;;;;;16.90;9.10;;;;;;;13.83;77.46;102666.16;5014478;28;20038;-60
2022/08/06 06:30:44;;;;;;;17.13;8.63;;;;;;;13.93;77.61;102670.00;5014666;28;20059;-59
2022/08/06 06:33:19;;;;;;;16.75;8.68;;;;;;;14.03;77.37;102678.31;5014663;28;20456;-59
2022/08/06 06:35:51;;;;;;;14.88;8.75;;;;;;;13.98;76.62;102659.69;5014522;28;20034;-60
2022/08/06 06:38:36;;;;;;;16.15;8.95;;;;;;;14.15;76.63;102676.03;5014967;28;20382;-60
2022/08/06 06:41:10;;;;;;;17.30;9.00;;;;;;;14.23;76.69;102671.81;5014900;28;20033;-60
2022/08/06 06:43:48;;;;;;;16.10;9.00;;;;;;;14.30;76.51;102674.28;5014642;28;20029;-60
2022/08/06 06:46:23;;;;;;;15.27;8.85;;;;;;;14.35;75.97;102683.44;5015066;28;20033;-61
2022/08/06 06:48:52;;;;;;;17.67;9.50;;;;;;;14.35;75.85;102666.75;5014696;28;20046;-60
2022/08/06 06:51:29;;;;;;;15.70;8.82;;;;;;;14.48;75.75;102679.19;4996701;28;20052;-60
2022/08/06 06:53:56;;;;;;;15.10;8.73;;;;;;;14.57;75.10;102681.34;5014495;28;20474;-59
2022/08/06 06:56:25;;;;;;;15.77;8.68;;;;;;;14.63;74.95;102675.47;5014196;28;20105;-59
2022/08/06 06:58:58;;;;;;;16.83;8.38;;;;;;;14.79;73.48;102673.44;5014022;28;20449;-60
2022/08/06 07:01:23;;;;;;;12.55;8.00;;;;;;;14.92;72.16;102683.09;5013914;28;20065;-60
2022/08/06 07:03:50;;;;;;;15.55;8.40;;;;;;;15.03;71.34;102689.41;5013832;28;20053;-60
2022/08/06 07:06:17;;;;;;;17.20;8.30;;;;;;;15.15;70.16;102693.75;5014123;28;20025;-61
2022/08/06 07:08:45;;;;;;;14.82;8.00;;;;;;;15.25;70.18;102685.31;5014189;28;20030;-60
2022/08/06 07:11:17;;;;;;;13.63;8.57;;;;;;;15.34;69.93;102689.13;5013547;28;20429;-60
2022/08/06 07:13:45;;;;;;;16.10;8.70;;;;;;;15.34;70.02;102672.41;5014325;28;20117;-60
2022/08/06 07:16:13;;;;;;;17.45;8.60;;;;;;;15.38;70.57;102681.84;5014316;28;20080;-59
2022/08/06 07:18:39;;;;;;;16.45;8.90;;;;;;;15.54;70.37;102688.06;5013889;28;20500;-59
2022/08/06 07:21:05;;;;;;;18.00;9.10;;;;;;;15.67;70.17;102694.09;5014253;28;20034;-60
2022/08/06 07:23:33;;;;;;;15.82;9.18;;;;;;;15.80;69.98;102693.41;5013764;28;20088;-62
2022/08/06 07:25:58;;;;;;;14.40;8.38;;;;;;;15.88;67.91;102694.72;5013870;28;20049;-59
2022/08/06 07:28:25;;;;;;;15.73;8.70;;;;;;;15.85;67.58;102687.78;5013674;28;20034;-60
2022/08/06 07:30:52;;;;;;;16.73;9.13;;;;;;;15.90;67.15;102689.66;5013656;28;20324;-60
2022/08/06 07:33:18;;;;;;;15.18;9.00;;;;;;;15.96;67.54;102687.66;5013708;28;20051;-59
2022/08/06 07:35:45;;;;;;;15.18;8.95;;;;;;;15.96;67.09;102699.66;5013642;28;20022;-59
2022/08/06 07:38:14;;;;;;;16.25;9.15;;;;;;;15.92;67.35;102684.63;5013366;28;20056;-60
2022/08/06 07:40:48;;;;;;;14.20;8.55;;;;;;;16.04;67.23;102699.00;5013255;28;20030;-59
2022/08/06 07:43:20;;;;;;;14.18;8.65;;;;;;;16.09;65.93;102689.72;5013422;28;20022;-59
2022/08/06 07:45:49;;;;;;;15.07;8.50;;;;;;;16.30;65.57;102700.59;5013285;28;20061;-60
2022/08/06 07:48:16;;;;;;;15.73;8.13;;;;;;;16.41;64.53;102709.69;5013427;28;20046;-60
2022/08/06 07:50:47;;;;;;;17.05;8.55;;;;;;;16.33;63.78;102709.25;5013310;28;20067;-60
2022/08/06 07:53:14;;;;;;;15.15;8.50;;;;;;;16.33;63.59;102719.56;5013312;28;20022;-60
2022/08/06 07:55:39;;;;;;;14.27;8.40;;;;;;;16.29;62.43;102715.72;5012909;28;20488;-60
2022/08/06 07:58:06;;;;;;;14.40;8.25;;;;;;;16.38;64.15;102705.53;5012796;28;20050;-60
2022/08/06 08:00:32;;;;;;;13.45;7.80;;;;;;;16.52;63.61;102720.41;5013016;28;20458;-60
2022/08/06 08:08:29;;;;;;;12.30;7.35;;;;;;;16.68;60.56;102728.56;5013042;28;20045;-60
2022/08/06 08:10:55;;;;;;;14.25;7.70;;;;;;;16.76;60.22;102715.88;5013395;28;20512;-61
2022/08/06 08:13:22;;;;;;;12.63;7.60;;;;;;;16.88;60.63;102726.59;5013479;28;20526;-60
2022/08/06 08:15:48;;;;;;;12.50;7.45;;;;;;;16.93;58.23;102721.78;5013035;28;20045;-59
2022/08/06 08:18:14;;;;;;;13.35;7.80;;;;;;;17.02;58.58;102723.88;5013244;28;20366;-60
2022/08/06 08:20:42;;;;;;;14.25;7.20;;;;;;;16.95;56.43;102713.13;5013276;28;20050;-61
2022/08/06 08:23:11;;;;;;;12.02;6.95;;;;;;;16.74;57.16;102715.34;5012700;28;20040;-62
2022/08/06 08:25:37;;;;;;;11.98;7.65;;;;;;;16.73;58.53;102727.66;5013468;28;20112;-59
2022/08/06 08:28:04;;;;;;;12.95;7.50;;;;;;;16.90;58.98;102725.19;5013295;28;20022;-59
2022/08/06 08:30:30;;;;;;;14.02;7.57;;;;;;;17.05;56.97;102732.50;4995516;28;20030;-59
2022/08/06 08:32:55;;;;;;;11.15;7.30;;;;;;;17.21;57.01;102730.28;5012646;28;20357;-59
2022/08/06 08:35:21;;;;;;;13.77;8.63;;;;;;;17.49;55.79;102735.13;5012790;28;20034;-59
2022/08/06 08:37:46;;;;;;;14.55;7.70;;;;;;;17.60;55.26;102728.22;5012524;28;20037;-60
2022/08/06 08:40:11;;;;;;;13.10;7.82;;;;;;;17.75;54.42;102729.88;5012565;28;20109;-59
2022/08/06 08:42:45;;;;;;;9.98;7.30;;;;;;;17.91;54.56;102724.78;5012280;28;20111;-60
2022/08/06 08:45:11;;;;;;;11.60;7.38;;;;;;;18.17;53.39;102722.31;5012549;28;20062;-59
2022/08/06 08:47:44;;;;;;;10.38;7.35;;;;;;;18.43;53.52;102716.16;5012084;28;20504;-59
2022/08/06 08:50:10;;;;;;;11.27;7.18;;;;;;;18.58;52.30;102719.78;5013072;28;20053;-59
2022/08/06 08:52:40;;;;;;;14.02;7.28;;;;;;;18.77;51.79;102716.78;5012572;28;20121;-60
2022/08/06 08:55:11;;;;;;;9.45;7.20;;;;;;;18.89;51.71;102719.06;5012713;28;20025;-60
2022/08/06 08:57:36;;;;;;;14.50;7.30;;;;;;;18.82;51.81;102716.69;5012311;28;20119;-60
2022/08/06 09:00:04;;;;;;;12.35;7.70;;;;;;;18.69;51.55;102724.00;5012529;28;20030;-60
2022/08/06 09:02:30;;;;;;;14.52;7.82;;;;;;;18.65;51.99;102723.81;5012118;28;20109;-59
2022/08/06 09:04:55;;;;;;;12.02;7.15;;;;;;;18.73;50.67;102727.81;5012098;28;20129;-59
2022/08/06 09:07:21;;;;;;;11.32;7.13;;;;;;;18.68;51.27;102727.94;5012544;28;20022;-59
2022/08/06 09:09:47;;;;;;;14.77;7.70;;;;;;;18.51;50.74;102735.06;5012203;28;20042;-60
2022/08/06 09:12:12;;;;;;;13.60;6.95;;;;;;;18.46;49.42;102726.75;5012110;28;20469;-60
2022/08/06 09:14:38;;;;;;;11.63;6.85;;;;;;;18.46;50.12;102734.34;5012101;28;20112;-61
2022/08/06 09:17:05;;;;;;;10.93;6.88;;;;;;;18.46;49.41;102726.75;5012272;28;20405;-59
2022/08/06 09:19:32;;;;;;;12.88;7.07;;;;;;;18.60;48.46;102739.91;5011999;28;20037;-60
2022/08/06 09:21:58;;;;;;;9.75;6.80;;;;;;;18.68;46.79;102737.16;5012497;28;20026;-60
2022/08/06 09:24:25;;;;;;;9.60;6.80;;;;;;;18.87;47.28;102738.97;5012852;28;20474;-59
2022/08/06 09:27:11;;;;;;;9.95;6.68;;;;;;;18.84;48.12;102734.03;5012584;28;20481;-59
2022/08/06 09:29:47;;;;;;;10.52;6.80;;;;;;;18.86;47.75;102737.31;5012577;28;20034;-60
2022/08/06 09:32:12;;;;;;;12.32;6.65;;;;;;;19.04;46.86;102737.47;5011825;28;20045;-60
2022/08/06 09:34:39;;;;;;;11.90;7.00;;;;;;;19.24;47.59;102736.97;5013916;28;20030;-60
2022/08/06 09:37:05;;;;;;;13.68;7.00;;;;;;;19.31;44.84;102739.34;5015672;28;20033;-60
2022/08/06 09:39:40;;;;;;;10.07;6.35;;;;;;;19.30;45.72;102732.06;5015495;28;20470;-60
2022/08/06 09:42:06;;;;;;;9.02;6.47;;;;;;;19.06;44.49;102736.03;5016072;28;20511;-59
2022/08/06 09:44:31;;;;;;;9.48;6.35;;;;;;;19.05;43.92;102734.38;5016220;28;20025;-59
2022/08/06 09:46:57;;;;;;;7.10;6.30;;;;;;;19.01;44.33;102744.56;5015231;28;20033;-61
2022/08/06 09:49:23;;;;;;;10.07;6.30;;;;;;;19.02;43.60;102740.63;5015996;28;20188;-60
2022/08/06 09:51:48;;;;;;;11.40;6.30;;;;;;;19.14;45.32;102740.03;5016442;28;20076;-60
2022/08/06 09:54:17;;;;;;;9.68;6.53;;;;;;;19.29;45.61;102750.03;5015475;28;20458;-61
2022/08/06 09:56:42;;;;;;;11.00;6.88;;;;;;;19.40;44.97;102745.00;5015660;28;20068;-59
2022/08/06 09:59:10;;;;;;;8.18;6.60;;;;;;;19.47;44.80;102745.38;5014372;28;20065;-60
2022/08/06 10:01:44;;;;;;;10.00;6.60;;;;;;;19.50;44.41;102741.94;5015622;28;20454;-59
2022/08/06 10:04:26;;;;;;;11.23;6.80;;;;;;;19.59;45.29;102734.41;5015476;28;20417;-60
2022/08/06 10:06:57;;;;;;;14.10;6.90;;;;;;;19.69;44.34;102740.88;5015708;28;20033;-60
2022/08/06 10:09:23;;;;;;;11.10;6.80;;;;;;;19.93;45.07;102737.72;5015219;28;20038;-59
2022/08/06 10:11:49;;;;;;;14.85;6.90;;;;;;;20.14;43.99;102742.72;5015719;28;20068;-60
2022/08/06 10:14:24;;;;;;;12.95;7.00;;;;;;;20.21;44.37;102740.28;5015295;28;20022;-60
2022/08/06 10:17:19;;;;;;;10.00;6.45;;;;;;;20.25;44.48;102741.25;5014722;28;20106;-60
2022/08/06 10:19:47;;;;;;;10.77;7.07;;;;;;;19.92;42.96;102744.47;5014634;28;20033;-60
2022/08/06 10:22:18;;;;;;;12.60;6.90;;;;;;;19.90;43.45;102743.97;5014935;28;20038;-60
2022/08/06 10:24:50;;;;;;;10.40;6.60;;;;;;;20.02;44.24;102732.09;5014622;28;20053;-58
2022/08/06 10:27:20;;;;;;;10.18;6.70;;;;;;;20.14;43.71;102720.25;5014830;28;20029;-60
2022/08/06 10:30:00;;;;;;;12.65;6.85;;;;;;;20.44;44.20;102726.94;5015030;28;20175;-60
2022/08/06 10:32:36;;;;;;;12.23;6.78;;;;;;;20.61;43.29;102725.28;5015314;28;20030;-60
2022/08/06 10:35:03;;;;;;;11.23;6.43;;;;;;;20.60;42.32;102713.19;5015140;28;20022;-60
2022/08/06 10:37:32;;;;;;;11.57;6.90;;;;;;;20.75;42.22;102713.91;5015398;28;20022;-60
2022/08/06 10:40:00;;;;;;;12.55;6.65;;;;;;;20.76;41.50;102715.56;5014983;28;20045;-61
2022/08/06 10:42:26;;;;;;;10.07;6.43;;;;;;;20.77;41.74;102715.22;5015171;28;20354;-60
2022/08/06 10:44:52;;;;;;;9.55;5.85;;;;;;;20.44;41.75;102717.66;5014915;28;20036;-59
2022/08/06 10:47:18;;;;;;;10.55;5.97;;;;;;;20.02;41.81;102713.28;5014431;28;20061;-60
2022/08/06 10:49:45;;;;;;;12.73;6.10;;;;;;;20.07;42.50;102712.31;5015247;28;20045;-60
2022/08/06 10:52:12;;;;;;;10.55;5.95;;;;;;;20.03;41.66;102708.47;4997088;28;20022;-60
2022/08/06 10:54:39;;;;;;;10.98;6.03;;;;;;;20.33;42.31;102708.72;5014993;28;20026;-60
2022/08/06 10:57:06;;;;;;;12.70;5.80;;;;;;;20.46;41.13;102701.28;5014976;28;20033;-60
2022/08/06 10:59:31;;;;;;;8.55;5.88;;;;;;;20.60;41.01;102704.75;5014973;28;20022;-60
2022/08/06 11:02:15;;;;;;;8.00;5.07;;;;;;;20.77;39.74;102706.78;5014979;28;20400;-60
2022/08/06 11:05:10;;;;;;;;;;;;;;;20.77;40.67;102709.59;5015003;28;20034;-60
2022/08/06 11:08:13;;;;;;;8.70;5.40;;;;;;;20.67;41.06;102716.38;4997118;28;20012;-60
2022/08/06 11:10:57;;;;;;;7.75;5.10;;;;;;;20.39;40.36;102704.59;5014197;28;20120;-59
2022/08/06 11:13:31;;;;;;;6.68;5.40;;;;;;;20.21;40.45;102700.94;5014842;28;20026;-60
2022/08/06 11:15:57;;;;;;;11.50;5.60;;;;;;;20.40;39.61;102701.44;5014652;28;20121;-60
2022/08/06 11:18:22;;;;;;;6.45;5.00;;;;;;;20.49;37.61;102692.22;5014174;28;20476;-60
2022/08/06 11:20:49;;;;;;;9.73;5.45;;;;;;;20.31;39.27;102694.97;5014526;28;20358;-60
2022/08/06 11:23:15;;;;;;;10.32;5.60;;;;;;;20.39;39.56;102702.63;5014382;28;20018;-60
2022/08/06 11:25:51;;;;;;;8.70;5.80;;;;;;;20.42;39.28;102696.31;4996555;28;20053;-60
2022/08/06 11:28:19;;;;;;;7.50;5.75;;;;;;;20.47;39.09;102694.53;5014221;28;20057;-60
2022/08/06 11:30:55;;;;;;;9.50;5.57;;;;;;;20.63;40.01;102700.47;5014518;28;20022;-60
2022/08/06 11:33:41;;;;;;;9.88;5.70;;;;;;;20.86;39.61;102690.72;5014176;28;20125;-60